createdAt,value
2023-05-22T00:00:20.882Z,11.48
2023-05-22T00:02:50.974Z,11.90
2023-05-22T00:05:20.865Z,10.30
2023-05-22T00:07:52.460Z,11.10
2023-05-22T00:10:22.366Z,12.10
2023-05-22T00:12:50.658Z,10.57
2023-05-22T00:15:19.122Z,10.93
2023-05-22T00:17:48.068Z,11.13
2023-05-22T00:20:16.664Z,11.45
2023-05-22T00:22:45.380Z,11.23
2023-05-22T00:25:14.060Z,11.27
2023-05-22T00:27:43.579Z,10.65
2023-05-22T00:30:14.511Z,10.20
2023-05-22T00:32:42.702Z,10.23
2023-05-22T00:35:11.474Z,10.05
2023-05-22T00:37:39.755Z,11.05
2023-05-22T00:40:10.179Z,9.40
2023-05-22T00:42:38.530Z,10.40
2023-05-22T00:45:11.203Z,11.05
2023-05-22T00:47:40.957Z,9.25
2023-05-22T00:50:11.673Z,10.02
2023-05-22T00:52:44.424Z,9.93
2023-05-22T00:55:13.593Z,9.48
2023-05-22T00:57:42.876Z,9.45
2023-05-22T01:00:16.974Z,9.82
2023-05-22T01:02:45.608Z,11.38
2023-05-22T01:05:18.351Z,13.07
2023-05-22T01:07:47.122Z,10.93
2023-05-22T01:10:15.084Z,11.88
2023-05-22T01:12:54.309Z,10.30
2023-05-22T01:15:32.526Z,9.98
2023-05-22T01:18:11.509Z,10.40
2023-05-22T01:20:45.319Z,9.95
2023-05-22T01:23:54.241Z,10.93
2023-05-22T01:26:38.903Z,10.70
2023-05-22T01:29:32.306Z,9.88
2023-05-22T01:32:03.488Z,10.10
2023-05-22T01:34:33.832Z,9.95
2023-05-22T01:37:03.334Z,10.10
2023-05-22T01:39:32.746Z,11.15
2023-05-22T01:42:01.077Z,9.45
2023-05-22T01:44:29.290Z,9.35
2023-05-22T01:47:00.854Z,10.65
2023-05-22T01:49:30.684Z,11.50
2023-05-22T01:52:04.658Z,10.65
2023-05-22T01:54:42.361Z,9.40
2023-05-22T01:57:17.401Z,9.50
2023-05-22T01:59:48.659Z,10.43
2023-05-22T02:02:20.202Z,9.00
2023-05-22T02:05:12.442Z,10.02
2023-05-22T02:07:44.947Z,9.95
2023-05-22T02:10:15.545Z,10.20
2023-05-22T02:12:44.156Z,11.32
2023-05-22T02:15:13.111Z,9.65
2023-05-22T02:17:41.848Z,10.05
2023-05-22T02:20:15.805Z,10.13
2023-05-22T02:22:47.455Z,9.40
2023-05-22T02:25:18.360Z,9.13
2023-05-22T02:27:48.099Z,8.93
2023-05-22T02:30:17.423Z,8.50
2023-05-22T02:32:48.863Z,9.77
2023-05-22T02:35:18.537Z,10.15
2023-05-22T02:37:46.676Z,10.32
2023-05-22T02:40:15.841Z,9.77
2023-05-22T02:42:43.977Z,9.55
2023-05-22T02:45:13.018Z,10.30
2023-05-22T02:47:42.644Z,9.43
2023-05-22T02:50:11.598Z,9.68
2023-05-22T02:52:41.000Z,9.57
2023-05-22T02:55:10.703Z,10.27
2023-05-22T02:57:39.176Z,9.85
2023-05-22T03:00:11.756Z,8.65
2023-05-22T03:02:40.160Z,11.25
2023-05-22T03:05:10.602Z,10.90
2023-05-22T03:07:40.235Z,10.27
2023-05-22T03:10:09.064Z,10.15
2023-05-22T03:12:37.268Z,10.10
2023-05-22T03:15:06.645Z,9.05
2023-05-22T03:17:35.956Z,9.43
2023-05-22T03:20:05.772Z,9.45
2023-05-22T03:22:34.851Z,10.00
2023-05-22T03:25:06.519Z,10.40
2023-05-22T03:27:34.623Z,10.63
2023-05-22T03:30:04.209Z,11.38
2023-05-22T03:32:37.508Z,10.00
2023-05-22T03:35:07.752Z,10.27
2023-05-22T03:37:36.393Z,12.05
2023-05-22T03:40:07.817Z,10.35
2023-05-22T03:42:36.416Z,11.73
2023-05-22T03:45:05.542Z,10.60
2023-05-22T03:47:34.337Z,10.80
2023-05-22T03:50:04.086Z,10.23
2023-05-22T03:52:32.607Z,10.30
2023-05-22T03:55:00.935Z,10.68
2023-05-22T03:57:30.868Z,10.90
2023-05-22T04:00:05.290Z,11.23
2023-05-22T04:02:45.422Z,9.48
2023-05-22T04:05:15.309Z,9.55
2023-05-22T04:07:45.054Z,9.90
2023-05-22T04:10:13.798Z,10.60
2023-05-22T04:12:43.267Z,10.35
2023-05-22T04:15:11.417Z,9.88
2023-05-22T04:17:42.403Z,10.40
2023-05-22T04:20:11.270Z,10.60
2023-05-22T04:22:41.350Z,10.35
2023-05-22T04:25:11.189Z,11.63
2023-05-22T04:27:39.042Z,10.75
2023-05-22T04:30:10.993Z,10.50
2023-05-22T04:32:41.197Z,12.50
2023-05-22T04:35:12.343Z,10.98
2023-05-22T04:37:42.433Z,12.27
2023-05-22T04:40:11.501Z,11.15
2023-05-22T04:42:40.611Z,10.95
2023-05-22T04:45:11.328Z,10.93
2023-05-22T04:47:42.022Z,11.85
2023-05-22T04:50:10.924Z,10.50
2023-05-22T04:52:38.977Z,11.55
2023-05-22T04:55:26.124Z,11.73
2023-05-22T04:58:13.339Z,10.50
2023-05-22T05:01:01.640Z,13.55
2023-05-22T05:03:30.556Z,11.65
2023-05-22T05:06:00.933Z,11.50
2023-05-22T05:08:29.350Z,12.40
2023-05-22T05:10:57.427Z,11.57
2023-05-22T05:13:25.835Z,11.57
2023-05-22T05:15:54.126Z,13.50
2023-05-22T05:18:23.928Z,11.80
2023-05-22T05:20:52.472Z,12.25
2023-05-22T05:23:21.052Z,12.50
2023-05-22T05:25:49.456Z,12.23
2023-05-22T05:28:17.812Z,13.93
2023-05-22T05:30:46.595Z,12.38
2023-05-22T05:33:32.904Z,12.90
2023-05-22T05:36:16.425Z,12.90
2023-05-22T05:38:46.892Z,11.77
2023-05-22T05:41:16.356Z,12.32
2023-05-22T05:43:46.715Z,13.20
2023-05-22T05:46:15.086Z,12.40
2023-05-22T05:48:46.407Z,13.10
2023-05-22T05:51:16.038Z,13.18
2023-05-22T05:53:45.208Z,10.98
2023-05-22T05:56:13.363Z,11.50
2023-05-22T05:58:41.502Z,11.05
2023-05-22T06:01:35.588Z,10.57
2023-05-22T06:04:09.332Z,12.05
2023-05-22T06:06:39.450Z,10.88
2023-05-22T06:09:17.070Z,12.85
2023-05-22T06:12:12.961Z,10.68
2023-05-22T06:14:44.968Z,10.35
2023-05-22T06:17:14.744Z,10.27
2023-05-22T06:19:45.801Z,10.07
2023-05-22T06:22:15.384Z,10.20
2023-05-22T06:24:46.144Z,8.57
2023-05-22T06:27:18.798Z,7.75
2023-05-22T06:29:47.597Z,8.98
2023-05-22T06:32:15.997Z,9.52
2023-05-22T06:34:48.841Z,8.75
2023-05-22T06:37:19.637Z,8.93
2023-05-22T06:39:49.828Z,8.45
2023-05-22T06:42:31.515Z,7.63
2023-05-22T06:45:32.520Z,9.60
2023-05-22T06:48:20.594Z,8.50
2023-05-22T06:51:15.232Z,6.50
2023-05-22T06:53:43.969Z,7.90
2023-05-22T06:56:16.492Z,6.63
2023-05-22T06:59:06.246Z,7.57
2023-05-22T07:01:55.486Z,6.85
2023-05-22T07:04:34.769Z,7.18
2023-05-22T07:07:10.515Z,6.63
2023-05-22T07:09:38.977Z,6.80
2023-05-22T07:12:08.563Z,6.20
2023-05-22T07:14:37.068Z,7.20
2023-05-22T07:17:05.295Z,6.07
2023-05-22T07:19:38.929Z,6.10
2023-05-22T07:22:06.983Z,6.27
2023-05-22T07:24:39.498Z,5.63
2023-05-22T07:27:09.188Z,6.50
2023-05-22T07:29:38.418Z,6.17
2023-05-22T07:32:09.648Z,6.10
2023-05-22T07:34:38.458Z,5.63
2023-05-22T07:37:10.773Z,6.83
2023-05-22T07:39:41.295Z,6.03
2023-05-22T07:42:10.781Z,8.43
2023-05-22T07:44:46.480Z,5.83
2023-05-22T07:47:14.619Z,6.97
2023-05-22T07:49:43.538Z,7.80
2023-05-22T07:52:13.118Z,7.23
2023-05-22T07:54:44.268Z,6.53
2023-05-22T07:57:14.296Z,6.60
2023-05-22T07:59:44.278Z,7.00
2023-05-22T08:02:12.583Z,7.37
2023-05-22T08:04:41.087Z,7.60
2023-05-22T08:07:09.458Z,8.13
2023-05-22T08:09:37.951Z,7.77
2023-05-22T08:12:09.344Z,6.90
2023-05-22T08:14:37.954Z,5.20
2023-05-22T08:17:06.585Z,5.43
2023-05-22T08:19:34.837Z,6.30
2023-05-22T08:22:03.376Z,5.23
2023-05-22T08:24:31.945Z,6.77
2023-05-22T08:27:01.107Z,6.87
2023-05-22T08:29:30.959Z,6.77
2023-05-22T08:31:58.972Z,7.13
2023-05-22T08:34:28.480Z,6.67
2023-05-22T08:36:56.612Z,6.57
2023-05-22T08:39:24.892Z,7.70
2023-05-22T08:41:53.788Z,7.87
2023-05-22T08:44:22.608Z,7.90
2023-05-22T08:46:53.740Z,6.97
2023-05-22T08:49:24.230Z,6.57
2023-05-22T08:51:57.648Z,7.00
2023-05-22T08:54:27.973Z,7.15
2023-05-22T08:56:57.611Z,8.25
2023-05-22T08:59:26.487Z,7.47
2023-05-22T09:01:58.107Z,6.32
2023-05-22T09:04:28.325Z,7.57
2023-05-22T09:06:56.886Z,6.90
2023-05-22T09:09:25.178Z,7.40
2023-05-22T09:11:56.137Z,6.90
2023-05-22T09:14:25.201Z,7.03
2023-05-22T09:16:55.100Z,6.43
2023-05-22T09:19:25.191Z,6.10
2023-05-22T09:21:54.943Z,5.90
2023-05-22T09:24:23.972Z,6.83
2023-05-22T09:26:53.024Z,6.67
2023-05-22T09:29:22.554Z,5.70
2023-05-22T09:31:50.963Z,6.30
2023-05-22T09:34:19.490Z,6.07
2023-05-22T09:36:50.129Z,7.13
2023-05-22T09:39:18.405Z,6.10
2023-05-22T09:41:46.615Z,6.57
2023-05-22T09:44:15.282Z,8.00
2023-05-22T09:46:46.508Z,6.03
2023-05-22T09:49:16.727Z,5.90
2023-05-22T09:51:48.540Z,6.30
2023-05-22T09:54:21.778Z,5.83
2023-05-22T09:56:51.765Z,6.97
2023-05-22T09:59:23.793Z,5.27
2023-05-22T10:01:53.852Z,5.93
2023-05-22T10:04:24.359Z,6.80
2023-05-22T10:06:55.606Z,5.40
2023-05-22T10:09:32.759Z,5.70
2023-05-22T10:12:05.963Z,6.50
2023-05-22T10:14:36.926Z,5.80
2023-05-22T10:17:07.321Z,5.93
2023-05-22T10:19:40.768Z,5.20
2023-05-22T10:22:14.992Z,5.47
2023-05-22T10:24:45.256Z,5.67
2023-05-22T10:27:13.705Z,5.47
2023-05-22T10:29:46.996Z,6.00
2023-05-22T10:32:25.427Z,6.63
2023-05-22T10:35:08.632Z,5.30
2023-05-22T10:37:50.925Z,6.10
2023-05-22T10:40:31.308Z,5.50
2023-05-22T10:43:01.315Z,6.00
2023-05-22T10:45:30.230Z,5.97
2023-05-22T10:48:04.814Z,5.60
2023-05-22T10:50:33.645Z,5.97
2023-05-22T10:53:21.960Z,5.33
2023-05-22T10:55:53.053Z,5.13
2023-05-22T10:58:28.242Z,5.18
2023-05-22T11:01:16.081Z,5.68
2023-05-22T11:03:58.827Z,5.00
2023-05-22T11:06:38.942Z,4.80
2023-05-22T11:09:21.832Z,5.03
2023-05-22T11:12:21.200Z,5.07
2023-05-22T11:14:52.180Z,5.65
2023-05-22T11:17:24.123Z,5.32
2023-05-22T11:20:00.607Z,5.70
2023-05-22T11:22:33.153Z,4.85
2023-05-22T11:25:01.889Z,5.03
2023-05-22T11:27:32.039Z,5.50
2023-05-22T11:30:01.392Z,5.43
2023-05-22T11:32:30.314Z,6.00
2023-05-22T11:34:59.231Z,5.90
2023-05-22T11:37:27.532Z,5.20
2023-05-22T11:39:58.221Z,5.63
2023-05-22T11:42:26.871Z,6.38
2023-05-22T11:44:57.217Z,7.45
2023-05-22T11:47:26.676Z,5.60
2023-05-22T11:49:55.418Z,7.35
2023-05-22T11:52:23.795Z,6.40
2023-05-22T11:54:53.719Z,5.40
2023-05-22T11:57:24.551Z,6.25
2023-05-22T11:59:52.915Z,5.43
2023-05-22T12:02:22.937Z,6.18
2023-05-22T12:04:55.682Z,5.38
2023-05-22T12:07:24.712Z,5.97
2023-05-22T12:09:57.041Z,5.40
2023-05-22T12:12:25.678Z,5.53
2023-05-22T12:14:54.453Z,4.93
2023-05-22T12:17:24.230Z,5.55
2023-05-22T12:19:54.372Z,5.68
2023-05-22T12:22:26.301Z,5.10
2023-05-22T12:24:55.114Z,5.28
2023-05-22T12:27:23.172Z,4.82
2023-05-22T12:29:53.089Z,5.15
2023-05-22T12:32:25.799Z,5.68
2023-05-22T12:34:54.281Z,5.88
2023-05-22T12:37:28.557Z,5.50
2023-05-22T12:39:58.162Z,6.72
2023-05-22T12:42:27.100Z,6.18
2023-05-22T12:44:56.880Z,4.80
2023-05-22T12:47:27.307Z,7.03
2023-05-22T12:49:55.785Z,6.85
2023-05-22T12:52:23.888Z,5.03
2023-05-22T12:54:52.258Z,5.33
2023-05-22T12:57:21.047Z,4.90
2023-05-22T12:59:49.683Z,5.25
2023-05-22T13:02:18.024Z,5.30
2023-05-22T13:04:47.657Z,5.88
2023-05-22T13:07:15.715Z,4.93
2023-05-22T13:09:44.181Z,6.80
2023-05-22T13:12:12.825Z,5.15
2023-05-22T13:14:41.410Z,5.20
2023-05-22T13:17:09.588Z,5.20
2023-05-22T13:19:38.499Z,4.77
2023-05-22T13:22:09.044Z,4.40
2023-05-22T13:24:37.088Z,5.68
2023-05-22T13:27:06.025Z,4.80
2023-05-22T13:29:34.474Z,5.00
2023-05-22T13:32:03.341Z,4.60
2023-05-22T13:34:32.500Z,4.10
2023-05-22T13:37:01.116Z,5.13
2023-05-22T13:39:30.911Z,4.75
2023-05-22T13:41:59.274Z,4.90
2023-05-22T13:44:27.676Z,5.43
2023-05-22T13:46:56.569Z,4.40
2023-05-22T13:49:25.263Z,5.03
2023-05-22T13:51:53.427Z,5.30
2023-05-22T13:54:21.961Z,4.70
2023-05-22T13:56:51.501Z,4.40
2023-05-22T13:59:20.176Z,4.72
2023-05-22T14:01:48.424Z,5.20
2023-05-22T14:04:17.164Z,4.30
2023-05-22T14:06:45.548Z,5.30
2023-05-22T14:09:14.011Z,5.32
2023-05-22T14:11:42.530Z,5.20
2023-05-22T14:14:12.607Z,5.05
2023-05-22T14:16:41.242Z,4.68
2023-05-22T14:19:09.810Z,4.85
2023-05-22T14:21:39.290Z,5.10
2023-05-22T14:24:08.503Z,5.10
2023-05-22T14:26:36.575Z,5.05
2023-05-22T14:29:05.204Z,4.70
2023-05-22T14:31:46.181Z,4.80
2023-05-22T14:34:15.893Z,5.50
2023-05-22T14:36:44.083Z,4.35
2023-05-22T14:39:12.483Z,5.30
2023-05-22T14:41:41.270Z,6.50
2023-05-22T14:44:09.605Z,5.70
2023-05-22T14:46:39.411Z,5.20
2023-05-22T14:49:07.837Z,5.68
2023-05-22T14:51:36.278Z,4.47
2023-05-22T14:54:05.092Z,5.63
2023-05-22T14:56:33.267Z,4.80
2023-05-22T14:59:01.581Z,4.82
2023-05-22T15:01:29.986Z,6.00
2023-05-22T15:03:59.706Z,5.10
2023-05-22T15:06:27.808Z,5.03
2023-05-22T15:08:56.065Z,5.47
2023-05-22T15:11:24.454Z,4.85
2023-05-22T15:13:54.664Z,5.13
2023-05-22T15:16:23.851Z,4.55
2023-05-22T15:18:52.394Z,4.20
2023-05-22T15:21:22.564Z,5.18
2023-05-22T15:23:51.367Z,5.22
2023-05-22T15:26:19.816Z,5.28
2023-05-22T15:28:47.832Z,4.45
2023-05-22T15:31:16.061Z,4.40
2023-05-22T15:33:44.495Z,5.15
2023-05-22T15:36:12.748Z,4.53
2023-05-22T15:38:42.703Z,5.55
2023-05-22T15:41:11.215Z,4.30
2023-05-22T15:43:39.741Z,4.30
2023-05-22T15:46:08.656Z,6.15
2023-05-22T15:48:38.095Z,5.20
2023-05-22T15:51:10.229Z,5.30
2023-05-22T15:53:39.410Z,4.50
2023-05-22T15:56:10.112Z,5.20
2023-05-22T15:58:38.305Z,4.82
2023-05-22T16:01:07.903Z,4.68
2023-05-22T16:03:36.806Z,4.75
2023-05-22T16:06:05.213Z,5.72
2023-05-22T16:08:33.686Z,4.72
2023-05-22T16:11:02.009Z,4.18
2023-05-22T16:13:33.333Z,5.15
2023-05-22T16:16:03.433Z,4.90
2023-05-22T16:18:32.248Z,4.95
2023-05-22T16:21:00.327Z,5.85
2023-05-22T16:23:29.103Z,5.03
2023-05-22T16:25:57.639Z,5.85
2023-05-22T16:28:25.890Z,4.80
2023-05-22T16:30:55.617Z,3.83
2023-05-22T16:33:24.309Z,4.25
2023-05-22T16:35:52.940Z,4.30
2023-05-22T16:38:21.572Z,7.40
2023-05-22T16:40:49.827Z,5.30
2023-05-22T16:43:18.046Z,5.05
2023-05-22T16:45:50.872Z,5.65
2023-05-22T16:48:20.879Z,4.72
2023-05-22T16:50:49.097Z,4.55
2023-05-22T16:53:17.988Z,4.38
2023-05-22T16:55:46.530Z,4.90
2023-05-22T16:58:14.841Z,4.13
2023-05-22T17:00:43.336Z,4.88
2023-05-22T17:03:12.160Z,4.35
2023-05-22T17:05:42.868Z,5.00
2023-05-22T17:08:11.532Z,3.83
2023-05-22T17:10:41.729Z,4.32
2023-05-22T17:13:12.528Z,3.60
2023-05-22T17:15:41.277Z,4.47
2023-05-22T17:18:09.637Z,4.20
2023-05-22T17:20:37.883Z,4.53
2023-05-22T17:23:08.143Z,4.10
2023-05-22T17:25:36.593Z,4.53
2023-05-22T17:28:05.664Z,4.78
2023-05-22T17:30:33.947Z,4.95
2023-05-22T17:33:03.753Z,4.55
2023-05-22T17:35:32.080Z,4.00
2023-05-22T17:38:00.425Z,4.95
2023-05-22T17:40:40.511Z,3.45
2023-05-22T17:43:12.665Z,4.55
2023-05-22T17:45:44.718Z,7.13
2023-05-22T17:48:14.793Z,8.30
2023-05-22T17:50:43.505Z,13.68
2023-05-22T17:53:13.831Z,4.60
2023-05-22T17:55:43.843Z,5.22
2023-05-22T17:58:12.773Z,6.80
2023-05-22T18:00:41.490Z,7.35
2023-05-22T18:03:10.004Z,6.30
2023-05-22T18:05:38.393Z,6.00
2023-05-22T18:08:06.739Z,5.97
2023-05-22T18:10:35.085Z,7.60
2023-05-22T18:13:04.774Z,7.30
2023-05-22T18:15:33.549Z,6.40
2023-05-22T18:18:02.766Z,6.50
2023-05-22T18:20:31.611Z,6.50
2023-05-22T18:23:00.129Z,6.63
2023-05-22T18:25:28.470Z,6.72
2023-05-22T18:27:56.759Z,4.93
2023-05-22T18:30:29.050Z,5.90
2023-05-22T18:32:57.809Z,5.20
2023-05-22T18:35:27.418Z,6.63
2023-05-22T18:37:55.816Z,5.63
2023-05-22T18:40:25.110Z,5.30
2023-05-22T18:42:54.385Z,5.95
2023-05-22T18:45:23.173Z,6.03
2023-05-22T18:47:53.531Z,6.90
2023-05-22T18:50:23.586Z,7.32
2023-05-22T18:52:52.102Z,5.60
2023-05-22T18:55:20.709Z,4.65
2023-05-22T18:57:49.096Z,4.68
2023-05-22T19:00:19.981Z,6.18
2023-05-22T19:02:48.428Z,4.38
2023-05-22T19:05:18.543Z,5.20
2023-05-22T19:07:47.067Z,5.10
2023-05-22T19:10:15.893Z,4.72
2023-05-22T19:12:44.250Z,4.85
2023-05-22T19:15:12.749Z,6.32
2023-05-22T19:17:41.129Z,7.05
2023-05-22T19:20:09.893Z,7.82
2023-05-22T19:22:40.113Z,6.40
2023-05-22T19:25:08.996Z,4.88
2023-05-22T19:27:39.085Z,5.30
2023-05-22T19:30:15.239Z,6.50
2023-05-22T19:32:43.795Z,7.78
2023-05-22T19:35:12.198Z,6.13
2023-05-22T19:37:41.940Z,5.78
2023-05-22T19:40:11.639Z,5.30
2023-05-22T19:42:40.256Z,4.82
2023-05-22T19:45:10.045Z,4.50
2023-05-22T19:47:38.785Z,4.85
2023-05-22T19:50:08.366Z,5.05
2023-05-22T19:53:03.477Z,5.00
2023-05-22T19:55:31.934Z,4.28
2023-05-22T19:58:00.220Z,4.40
2023-05-22T20:00:29.415Z,4.45
2023-05-22T20:02:57.873Z,5.25
2023-05-22T20:05:26.181Z,4.22
2023-05-22T20:07:54.636Z,5.03
2023-05-22T20:10:24.440Z,4.40
2023-05-22T20:12:54.369Z,4.07
2023-05-22T20:15:24.894Z,5.00
2023-05-22T20:17:54.687Z,4.82
2023-05-22T20:20:24.291Z,5.15
2023-05-22T20:22:53.891Z,4.47
2023-05-22T20:25:22.400Z,4.50
2023-05-22T20:27:52.105Z,3.90
2023-05-22T20:30:20.969Z,4.45
2023-05-22T20:32:49.691Z,4.20
2023-05-22T20:35:19.152Z,5.03
2023-05-22T20:37:47.706Z,5.53
2023-05-22T20:40:17.806Z,4.43
2023-05-22T20:42:47.604Z,4.53
2023-05-22T20:45:17.677Z,5.22
2023-05-22T20:47:45.876Z,4.65
2023-05-22T20:50:15.828Z,4.80
2023-05-22T20:52:46.240Z,4.30
2023-05-22T20:55:14.495Z,4.50
2023-05-22T20:57:42.674Z,4.35
2023-05-22T21:00:14.223Z,4.72
2023-05-22T21:02:43.854Z,5.57
2023-05-22T21:05:12.209Z,4.45
2023-05-22T21:07:40.444Z,4.63
2023-05-22T21:10:09.820Z,4.75
2023-05-22T21:12:39.124Z,4.28
2023-05-22T21:15:08.704Z,4.45
2023-05-22T21:17:37.193Z,4.45
2023-05-22T21:20:09.760Z,4.68
2023-05-22T21:22:37.828Z,6.00
2023-05-22T21:25:07.674Z,9.70
2023-05-22T21:27:35.793Z,6.68
2023-05-22T21:30:04.316Z,5.18
2023-05-22T21:32:32.875Z,4.90
2023-05-22T21:35:01.065Z,4.57
2023-05-22T21:37:30.894Z,5.30
2023-05-22T21:39:59.308Z,4.38
2023-05-22T21:42:34.811Z,4.10
2023-05-22T21:45:14.013Z,4.95
2023-05-22T21:47:42.246Z,5.25
2023-05-22T21:50:12.326Z,5.90
2023-05-22T21:52:41.795Z,4.28
2023-05-22T21:55:10.518Z,5.38
2023-05-22T21:57:38.542Z,4.68
2023-05-22T22:00:08.743Z,4.68
2023-05-22T22:02:36.790Z,5.22
2023-05-22T22:05:06.052Z,5.65
2023-05-22T22:07:34.304Z,5.15
2023-05-22T22:10:07.446Z,4.18
2023-05-22T22:12:35.572Z,4.65
2023-05-22T22:15:03.480Z,4.28
2023-05-22T22:17:34.918Z,4.95
2023-05-22T22:20:03.183Z,5.97
2023-05-22T22:22:31.479Z,5.40
2023-05-22T22:24:59.728Z,4.65
2023-05-22T22:27:29.217Z,4.38
2023-05-22T22:29:57.195Z,4.47
2023-05-22T22:32:50.103Z,3.63
2023-05-22T22:35:18.355Z,4.85
2023-05-22T22:37:46.838Z,4.00
2023-05-22T22:40:15.106Z,4.07
2023-05-22T22:42:44.558Z,4.95
2023-05-22T22:45:14.914Z,4.25
2023-05-22T22:47:43.643Z,6.18
2023-05-22T22:50:12.908Z,6.10
2023-05-22T22:52:45.381Z,5.18
2023-05-22T22:55:14.183Z,5.75
2023-05-22T22:57:43.402Z,4.22
2023-05-22T23:00:16.155Z,5.97
2023-05-22T23:02:45.017Z,6.90
2023-05-22T23:05:13.738Z,5.40
2023-05-22T23:07:41.859Z,5.85
2023-05-22T23:10:10.786Z,4.78
2023-05-22T23:12:39.127Z,6.43
2023-05-22T23:15:09.249Z,6.65
2023-05-22T23:17:39.247Z,5.53
2023-05-22T23:20:10.264Z,5.60
2023-05-22T23:22:41.992Z,5.00
2023-05-22T23:25:11.168Z,8.35
2023-05-22T23:27:39.585Z,5.15
2023-05-22T23:30:09.554Z,5.10
2023-05-22T23:32:39.278Z,4.07
2023-05-22T23:35:09.613Z,5.05
2023-05-22T23:37:37.764Z,4.22
2023-05-22T23:40:07.761Z,4.57
2023-05-22T23:42:36.469Z,5.45
2023-05-22T23:45:05.504Z,5.57
2023-05-22T23:47:33.981Z,5.10
2023-05-22T23:50:03.775Z,5.05
2023-05-22T23:52:32.153Z,5.38
2023-05-22T23:55:00.916Z,4.00
2023-05-22T23:57:29.135Z,5.20
2023-05-22T23:59:57.461Z,3.97
